PWSweather.com
Personal Weather Stations
Station Observations
KILBOURB2
Cap Estates, Bourbonnais, IL 60914

Cap EstatesBourbonnais, IL 60914

Lat: 41.16, Lon: -87.83

Elevation: 350

Station Type: La Crosse

High Low Average
Temperature 76.6°F24.8°C 60.1°F15.6°C 69.3°F20.7°C
Dew Point 63.4°F17.4°C 53.1°F11.7°C 60.1°F15.6°C
Winds 23.6 mph 38.0 kmh Calm Calm 11.0 mph S17.7 kmh S
Wind Gusts 32.4 mph52.1 kmh 6.3 mph10.1 kmh 16.0 mph25.7 kmh
Humidity 87% 63% 73%
Pressure 29.77 in1008.1 mb 29.69 in1005.4 mb -
Precipitation 0.06 in1.5 mm - -
Hour Temp Dew Point Humidity Winds Wind Gusts Pressure Precip Precip Rate Daily Precip Total
12:00 AM 60.1°F15.6°C 53.1°F11.7°C 78% 2.0 mph SSE3.2 kmh SSE 7.4 mph11.9 kmh 29.75 in1007.5 mb 0.02 in0.5 mm 0.00 in/hr0.0 mm/hr 0.02 in0.5 mm
12:11 AM 60.4°F15.8°C 53.6°F12.0°C 78% 10.3 mph SE16.6 kmh SE 13.0 mph20.9 kmh 29.75 in1007.5 mb 0.02 in0.5 mm 0.00 in/hr0.0 mm/hr 0.02 in0.5 mm
12:18 AM 60.6°F15.9°C 53.8°F12.1°C 78% 7.6 mph SE12.2 kmh SE 13.0 mph20.9 kmh 29.74 in1007.1 mb 0.00 in0.0 mm 0.00 in/hr0.0 mm/hr 0.02 in0.5 mm
12:22 AM 61.0°F16.1°C 54.5°F12.5°C 79% 11.0 mph SSE17.7 kmh SSE 11.0 mph17.7 kmh 29.74 in1007.1 mb 0.00 in0.0 mm 0.00 in/hr0.0 mm/hr 0.02 in0.5 mm
12:26 AM 61.0°F16.1°C 54.5°F12.5°C 79% 6.9 mph SSE11.1 kmh SSE 11.0 mph17.7 kmh 29.73 in1006.8 mb 0.00 in0.0 mm 0.00 in/hr0.0 mm/hr 0.02 in0.5 mm
12:33 AM 61.3°F16.3°C 54.8°F12.7°C 79% 7.6 mph SSE12.2 kmh SSE 10.5 mph16.9 kmh 29.73 in1006.8 mb 0.00 in0.0 mm 0.00 in/hr0.0 mm/hr 0.02 in0.5 mm
12:37 AM 61.5°F16.4°C 55.3°F12.9°C 80% 8.1 mph SSE13.0 kmh SSE 10.5 mph16.9 kmh 29.73 in1006.8 mb 0.00 in0.0 mm 0.00 in/hr0.0 mm/hr 0.02 in0.5 mm
12:41 AM 61.9°F16.6°C 56.0°F13.3°C 81% 16.3 mph S26.2 kmh S 16.3 mph26.2 kmh 29.73 in1006.8 mb 0.00 in0.0 mm 0.00 in/hr0.0 mm/hr 0.02 in0.5 mm
12:48 AM 62.2°F16.8°C 56.3°F13.5°C 82% 11.4 mph S18.3 kmh S 16.3 mph26.2 kmh 29.73 in1006.8 mb 0.00 in0.0 mm 0.00 in/hr0.0 mm/hr 0.02 in0.5 mm
12:52 AM 62.4°F16.9°C 57.0°F13.9°C 84% 13.0 mph SSE20.9 kmh SSE 13.0 mph20.9 kmh 29.73 in1006.8 mb 0.00 in0.0 mm 0.00 in/hr0.0 mm/hr 0.02 in0.5 mm
12:56 AM 62.4°F16.9°C 58.0°F14.4°C 85% 5.8 mph S9.3 kmh S 13.0 mph20.9 kmh 29.73 in1006.8 mb 0.00 in0.0 mm 0.00 in/hr0.0 mm/hr 0.02 in0.5 mm
01:03 AM 63.0°F17.2°C 59.1°F15.1°C 87% 8.1 mph SSE13.0 kmh SSE 16.6 mph26.7 kmh 29.73 in1006.8 mb 0.00 in0.0 mm 0.00 in/hr0.0 mm/hr 0.02 in0.5 mm
01:07 AM 63.1°F17.3°C 59.2°F15.1°C 87% 14.8 mph S23.8 kmh S 16.6 mph26.7 kmh 29.72 in1006.4 mb 0.00 in0.0 mm 0.00 in/hr0.0 mm/hr 0.02 in0.5 mm
01:10 AM 63.1°F17.3°C 59.2°F15.1°C 87% 12.1 mph S19.5 kmh S 14.8 mph23.8 kmh 29.72 in1006.4 mb 0.00 in0.0 mm 0.00 in/hr0.0 mm/hr 0.02 in0.5 mm
01:17 AM 63.3°F17.4°C 59.1°F15.1°C 86% 8.5 mph S13.7 kmh S 14.8 mph23.8 kmh 29.72 in1006.4 mb 0.00 in0.0 mm 0.00 in/hr0.0 mm/hr 0.02 in0.5 mm
01:21 AM 63.3°F17.4°C 59.1°F15.1°C 86% 13.6 mph S21.9 kmh S 13.6 mph21.9 kmh 29.72 in1006.4 mb 0.00 in0.0 mm 0.00 in/hr0.0 mm/hr 0.02 in0.5 mm
01:26 AM 63.5°F17.5°C 59.1°F15.1°C 86% 15.0 mph SW24.1 kmh SW 15.0 mph24.1 kmh 29.72 in1006.4 mb 0.00 in0.0 mm 0.00 in/hr0.0 mm/hr 0.02 in0.5 mm
01:32 AM 63.3°F17.4°C 58.4°F14.7°C 84% 13.2 mph SSE21.2 kmh SSE 16.1 mph25.9 kmh 29.72 in1006.4 mb 0.00 in0.0 mm 0.00 in/hr0.0 mm/hr 0.02 in0.5 mm
01:37 AM 63.3°F17.4°C 58.4°F14.7°C 84% 23.6 mph SE38.0 kmh SE 29.1 mph46.8 kmh 29.71 in1006.1 mb 0.00 in0.0 mm 0.00 in/hr0.0 mm/hr 0.02 in0.5 mm
01:41 AM 63.3°F17.4°C 58.4°F14.7°C 84% 9.8 mph SSW15.8 kmh SSW 29.1 mph46.8 kmh 29.70 in1005.8 mb 0.00 in0.0 mm 0.00 in/hr0.0 mm/hr 0.02 in0.5 mm
01:48 AM 63.3°F17.4°C 58.0°F14.4°C 83% 8.7 mph SSE14.0 kmh SSE 12.1 mph19.5 kmh 29.70 in1005.8 mb 0.00 in0.0 mm 0.00 in/hr0.0 mm/hr 0.02 in0.5 mm
01:52 AM 63.3°F17.4°C 58.0°F14.4°C 83% 13.0 mph S20.9 kmh S 13.0 mph20.9 kmh 29.70 in1005.8 mb 0.00 in0.0 mm 0.00 in/hr0.0 mm/hr 0.02 in0.5 mm
01:56 AM 63.7°F17.6°C 58.1°F14.5°C 82% 12.8 mph SSW20.6 kmh SSW 13.0 mph20.9 kmh 29.71 in1006.1 mb 0.00 in0.0 mm 0.00 in/hr0.0 mm/hr 0.02 in0.5 mm
02:03 AM 64.0°F17.8°C 58.1°F14.5°C 81% 10.5 mph SSE16.9 kmh SSE 14.3 mph23.0 kmh 29.70 in1005.8 mb 0.00 in0.0 mm 0.00 in/hr0.0 mm/hr 0.02 in0.5 mm
02:07 AM 64.0°F17.8°C 58.1°F14.5°C 81% 8.9 mph S14.3 kmh S 14.8 mph23.8 kmh 29.70 in1005.8 mb 0.00 in0.0 mm 0.00 in/hr0.0 mm/hr 0.02 in0.5 mm
02:11 AM 64.2°F17.9°C 57.9°F14.4°C 80% 16.1 mph SSW25.9 kmh SSW 16.1 mph25.9 kmh 29.70 in1005.8 mb 0.00 in0.0 mm 0.00 in/hr0.0 mm/hr 0.02 in0.5 mm
02:18 AM 64.2°F17.9°C 57.9°F14.4°C 80% 15.7 mph SSE25.3 kmh SSE 16.1 mph25.9 kmh 29.70 in1005.8 mb 0.00 in0.0 mm 0.00 in/hr0.0 mm/hr 0.02 in0.5 mm
02:22 AM 64.2°F17.9°C 57.6°F14.2°C 79% 11.4 mph SSW18.3 kmh SSW 15.7 mph25.3 kmh 29.69 in1005.4 mb 0.00 in0.0 mm 0.00 in/hr0.0 mm/hr 0.02 in0.5 mm
02:26 AM 64.4°F18.0°C 57.7°F14.3°C 79% 6.9 mph SSW11.1 kmh SSW 15.7 mph25.3 kmh 29.70 in1005.8 mb 0.00 in0.0 mm 0.00 in/hr0.0 mm/hr 0.02 in0.5 mm
02:33 AM 64.6°F18.1°C 57.5°F14.2°C 78% 11.9 mph S19.2 kmh S 15.2 mph24.5 kmh 29.69 in1005.4 mb 0.00 in0.0 mm 0.00 in/hr0.0 mm/hr 0.02 in0.5 mm
02:37 AM 64.8°F18.2°C 57.7°F14.3°C 78% 10.7 mph SSE17.2 kmh SSE 15.2 mph24.5 kmh 29.70 in1005.8 mb 0.00 in0.0 mm 0.00 in/hr0.0 mm/hr 0.02 in0.5 mm
02:41 AM 64.8°F18.2°C 57.7°F14.3°C 78% 6.0 mph SW9.7 kmh SW 14.5 mph23.3 kmh 29.70 in1005.8 mb 0.00 in0.0 mm 0.00 in/hr0.0 mm/hr 0.02 in0.5 mm
02:48 AM 64.9°F18.3°C 57.9°F14.4°C 77% 9.6 mph S15.4 kmh S 9.6 mph15.4 kmh 29.70 in1005.8 mb 0.00 in0.0 mm 0.00 in/hr0.0 mm/hr 0.02 in0.5 mm
02:52 AM 65.1°F18.4°C 57.3°F14.1°C 76% 6.9 mph SSE11.1 kmh SSE 10.1 mph16.3 kmh 29.70 in1005.8 mb 0.00 in0.0 mm 0.00 in/hr0.0 mm/hr 0.02 in0.5 mm
02:56 AM 65.1°F18.4°C 57.3°F14.1°C 76% 13.9 mph S22.4 kmh S 13.9 mph22.4 kmh 29.70 in1005.8 mb 0.00 in0.0 mm 0.00 in/hr0.0 mm/hr 0.02 in0.5 mm
03:03 AM 65.3°F18.5°C 57.5°F14.2°C 76% 17.0 mph SSW27.4 kmh SSW 17.0 mph27.4 kmh 29.70 in1005.8 mb 0.00 in0.0 mm 0.00 in/hr0.0 mm/hr 0.02 in0.5 mm
03:07 AM 65.3°F18.5°C 57.1°F13.9°C 75% 7.2 mph S11.6 kmh S 17.0 mph27.4 kmh 29.70 in1005.8 mb 0.00 in0.0 mm 0.00 in/hr0.0 mm/hr 0.02 in0.5 mm
03:11 AM 65.5°F18.6°C 57.3°F14.1°C 75% 6.5 mph WSW10.5 kmh WSW 17.0 mph27.4 kmh 29.71 in1006.1 mb 0.00 in0.0 mm 0.00 in/hr0.0 mm/hr 0.02 in0.5 mm
03:18 AM 65.5°F18.6°C 57.3°F14.1°C 75% 8.3 mph SSW13.4 kmh SSW 9.6 mph15.4 kmh 29.71 in1006.1 mb 0.00 in0.0 mm 0.00 in/hr0.0 mm/hr 0.02 in0.5 mm
03:22 AM 65.5°F18.6°C 57.3°F14.1°C 75% 8.3 mph SSW13.4 kmh SSW 8.3 mph13.4 kmh 29.71 in1006.1 mb 0.00 in0.0 mm 0.00 in/hr0.0 mm/hr 0.02 in0.5 mm
03:27 AM 65.5°F18.6°C 57.3°F14.1°C 75% 11.0 mph SW17.7 kmh SW 11.0 mph17.7 kmh 29.71 in1006.1 mb 0.00 in0.0 mm 0.00 in/hr0.0 mm/hr 0.02 in0.5 mm
03:33 AM 65.3°F18.5°C 56.8°F13.8°C 74% 5.4 mph S8.7 kmh S 11.2 mph18.0 kmh 29.72 in1006.4 mb 0.00 in0.0 mm 0.00 in/hr0.0 mm/hr 0.02 in0.5 mm
03:37 AM 65.1°F18.4°C 57.1°F13.9°C 75% 12.5 mph S20.1 kmh S 12.5 mph20.1 kmh 29.72 in1006.4 mb 0.00 in0.0 mm 0.00 in/hr0.0 mm/hr 0.02 in0.5 mm
03:42 AM 65.1°F18.4°C 57.0°F13.9°C 75% 7.4 mph S11.9 kmh S 12.5 mph20.1 kmh 29.72 in1006.4 mb 0.00 in0.0 mm 0.00 in/hr0.0 mm/hr 0.02 in0.5 mm
03:48 AM 65.1°F18.4°C 57.0°F13.9°C 75% 6.3 mph SSE10.1 kmh SSE 13.4 mph21.6 kmh 29.72 in1006.4 mb 0.00 in0.0 mm 0.00 in/hr0.0 mm/hr 0.02 in0.5 mm
03:52 AM 65.1°F18.4°C 57.0°F13.9°C 75% 6.3 mph SSE10.1 kmh SSE 13.4 mph21.6 kmh 29.72 in1006.4 mb 0.00 in0.0 mm 0.00 in/hr0.0 mm/hr 0.02 in0.5 mm
03:59 AM 64.9°F18.3°C 56.8°F13.8°C 75% 18.1 mph S29.1 kmh S 18.1 mph29.1 kmh 29.72 in1006.4 mb 0.00 in0.0 mm 0.00 in/hr0.0 mm/hr 0.02 in0.5 mm
04:03 AM 64.9°F18.3°C 56.8°F13.8°C 75% 13.6 mph SSW21.9 kmh SSW 18.1 mph29.1 kmh 29.73 in1006.8 mb 0.00 in0.0 mm 0.00 in/hr0.0 mm/hr 0.02 in0.5 mm
04:08 AM 64.9°F18.3°C 57.0°F13.9°C 75% 6.0 mph S9.7 kmh S 23.3 mph37.5 kmh 29.72 in1006.4 mb 0.00 in0.0 mm 0.00 in/hr0.0 mm/hr 0.02 in0.5 mm
04:12 AM 64.9°F18.3°C 56.8°F13.8°C 75% 6.0 mph S9.7 kmh S 23.3 mph37.5 kmh 29.72 in1006.4 mb 0.00 in0.0 mm 0.00 in/hr0.0 mm/hr 0.02 in0.5 mm
04:19 AM 65.1°F18.4°C 57.0°F13.9°C 75% 8.3 mph SSW13.4 kmh SSW 8.3 mph13.4 kmh 29.73 in1006.8 mb 0.00 in0.0 mm 0.00 in/hr0.0 mm/hr 0.02 in0.5 mm
04:23 AM 65.1°F18.4°C 56.8°F13.8°C 75% 8.3 mph SSW13.4 kmh SSW 8.3 mph13.4 kmh 29.73 in1006.8 mb 0.00 in0.0 mm 0.00 in/hr0.0 mm/hr 0.02 in0.5 mm
04:27 AM 65.1°F18.4°C 56.8°F13.8°C 75% 6.5 mph S10.5 kmh S 8.3 mph13.4 kmh 29.73 in1006.8 mb 0.00 in0.0 mm 0.00 in/hr0.0 mm/hr 0.02 in0.5 mm
04:34 AM 64.9°F18.3°C 56.8°F13.8°C 75% 8.3 mph S13.4 kmh S 14.5 mph23.3 kmh 29.73 in1006.8 mb 0.00 in0.0 mm 0.00 in/hr0.0 mm/hr 0.02 in0.5 mm
04:38 AM 64.9°F18.3°C 56.8°F13.8°C 75% 7.2 mph S11.6 kmh S 14.5 mph23.3 kmh 29.74 in1007.1 mb 0.00 in0.0 mm 0.00 in/hr0.0 mm/hr 0.02 in0.5 mm
04:42 AM 64.9°F18.3°C 56.8°F13.8°C 75% 11.4 mph S18.3 kmh S 15.0 mph24.1 kmh 29.74 in1007.1 mb 0.00 in0.0 mm 0.00 in/hr0.0 mm/hr 0.02 in0.5 mm
04:49 AM 64.9°F18.3°C 56.8°F13.8°C 75% 10.1 mph SSW16.3 kmh SSW 15.0 mph24.1 kmh 29.74 in1007.1 mb 0.00 in0.0 mm 0.00 in/hr0.0 mm/hr 0.02 in0.5 mm
04:53 AM 64.9°F18.3°C 56.8°F13.8°C 75% 7.8 mph SSE12.6 kmh SSE 10.7 mph17.2 kmh 29.74 in1007.1 mb 0.00 in0.0 mm 0.00 in/hr0.0 mm/hr 0.02 in0.5 mm
04:57 AM 64.9°F18.3°C 56.8°F13.8°C 75% 11.2 mph SSE18.0 kmh SSE 12.5 mph20.1 kmh 29.74 in1007.1 mb 0.00 in0.0 mm 0.00 in/hr0.0 mm/hr 0.02 in0.5 mm
05:04 AM 64.9°F18.3°C 56.8°F13.8°C 75% 9.6 mph SW15.4 kmh SW 12.5 mph20.1 kmh 29.74 in1007.1 mb 0.00 in0.0 mm 0.00 in/hr0.0 mm/hr 0.02 in0.5 mm
05:08 AM 64.9°F18.3°C 56.8°F13.8°C 75% 11.2 mph SSW18.0 kmh SSW 11.2 mph18.0 kmh 29.74 in1007.1 mb 0.00 in0.0 mm 0.00 in/hr0.0 mm/hr 0.02 in0.5 mm
05:11 AM 64.9°F18.3°C 56.8°F13.8°C 75% 11.6 mph SSE18.7 kmh SSE 11.6 mph18.7 kmh 29.75 in1007.5 mb 0.00 in0.0 mm 0.00 in/hr0.0 mm/hr 0.02 in0.5 mm
05:18 AM 64.8°F18.2°C 56.6°F13.7°C 75% 13.0 mph S20.9 kmh S 13.0 mph20.9 kmh 29.75 in1007.5 mb 0.00 in0.0 mm 0.00 in/hr0.0 mm/hr 0.02 in0.5 mm
05:22 AM 64.8°F18.2°C 57.0°F13.9°C 76% 8.3 mph S13.4 kmh S 13.0 mph20.9 kmh 29.75 in1007.5 mb 0.00 in0.0 mm 0.00 in/hr0.0 mm/hr 0.02 in0.5 mm
05:26 AM 64.8°F18.2°C 57.0°F13.9°C 76% 13.0 mph S20.9 kmh S 13.0 mph20.9 kmh 29.75 in1007.5 mb 0.00 in0.0 mm 0.00 in/hr0.0 mm/hr 0.02 in0.5 mm
05:33 AM 64.8°F18.2°C 57.0°F13.9°C 76% 18.3 mph SSW29.5 kmh SSW 18.3 mph29.5 kmh 29.75 in1007.5 mb 0.00 in0.0 mm 0.00 in/hr0.0 mm/hr 0.02 in0.5 mm
05:37 AM 64.8°F18.2°C 57.0°F13.9°C 76% 16.8 mph S27.0 kmh S 18.3 mph29.5 kmh 29.75 in1007.5 mb 0.00 in0.0 mm 0.00 in/hr0.0 mm/hr 0.02 in0.5 mm
05:41 AM 64.8°F18.2°C 57.0°F13.9°C 76% 16.8 mph S27.0 kmh S 18.3 mph29.5 kmh 29.75 in1007.5 mb 0.00 in0.0 mm 0.00 in/hr0.0 mm/hr 0.02 in0.5 mm
05:48 AM 64.8°F18.2°C 57.0°F13.9°C 76% 17.7 mph SSW28.5 kmh SSW 17.7 mph28.5 kmh 29.75 in1007.5 mb 0.00 in0.0 mm 0.00 in/hr0.0 mm/hr 0.02 in0.5 mm
05:52 AM 64.6°F18.1°C 57.5°F14.2°C 78% 10.3 mph SSW16.6 kmh SSW 17.7 mph28.5 kmh 29.76 in1007.8 mb 0.00 in0.0 mm 0.00 in/hr0.0 mm/hr 0.02 in0.5 mm
05:59 AM 64.2°F17.9°C 57.6°F14.2°C 79% 9.2 mph SSW14.8 kmh SSW 10.3 mph16.6 kmh 29.75 in1007.5 mb 0.00 in0.0 mm 0.00 in/hr0.0 mm/hr 0.02 in0.5 mm
06:03 AM 63.7°F17.6°C 57.4°F14.1°C 80% 9.2 mph SSW14.8 kmh SSW 10.3 mph16.6 kmh 29.75 in1007.5 mb 0.00 in0.0 mm 0.00 in/hr0.0 mm/hr 0.02 in0.5 mm
06:07 AM 63.5°F17.5°C 57.4°F14.1°C 80% 12.5 mph S20.1 kmh S 12.5 mph20.1 kmh 29.75 in1007.5 mb 0.00 in0.0 mm 0.00 in/hr0.0 mm/hr 0.02 in0.5 mm
06:14 AM 63.3°F17.4°C 57.7°F14.3°C 82% 5.8 mph SSW9.3 kmh SSW 12.5 mph20.1 kmh 29.75 in1007.5 mb 0.02 in0.5 mm 0.17 in/hr4.3 mm/hr 0.04 in1.0 mm
06:18 AM 63.1°F17.3°C 57.5°F14.2°C 82% 11.0 mph S17.7 kmh S 12.5 mph20.1 kmh 29.74 in1007.1 mb 0.02 in0.5 mm 0.00 in/hr0.0 mm/hr 0.04 in1.0 mm
06:22 AM 63.3°F17.4°C 57.7°F14.3°C 82% 11.6 mph SSW18.7 kmh SSW 11.6 mph18.7 kmh 29.74 in1007.1 mb 0.02 in0.5 mm 0.00 in/hr0.0 mm/hr 0.04 in1.0 mm
06:29 AM 63.7°F17.6°C 58.1°F14.5°C 82% 6.0 mph SW9.7 kmh SW 15.4 mph24.8 kmh 29.75 in1007.5 mb 0.04 in1.0 mm 0.17 in/hr4.3 mm/hr 0.06 in1.5 mm
06:33 AM 64.0°F17.8°C 58.1°F14.5°C 82% 7.8 mph SSW12.6 kmh SSW 15.4 mph24.8 kmh 29.75 in1007.5 mb 0.04 in1.0 mm 0.00 in/hr0.0 mm/hr 0.06 in1.5 mm
06:40 AM 64.2°F17.9°C 58.4°F14.7°C 82% 7.6 mph SSE12.2 kmh SSE 12.5 mph20.1 kmh 29.75 in1007.5 mb 0.04 in1.0 mm 0.00 in/hr0.0 mm/hr 0.06 in1.5 mm
06:44 AM 64.4°F18.0°C 58.4°F14.7°C 81% 16.3 mph SSE26.2 kmh SSE 16.3 mph26.2 kmh 29.75 in1007.5 mb 0.04 in1.0 mm 0.00 in/hr0.0 mm/hr 0.06 in1.5 mm
06:50 AM 64.6°F18.1°C 58.6°F14.8°C 81% 11.9 mph SSW19.2 kmh SSW 16.3 mph26.2 kmh 29.75 in1007.5 mb 0.04 in1.0 mm 0.00 in/hr0.0 mm/hr 0.06 in1.5 mm
06:55 AM 64.6°F18.1°C 58.6°F14.8°C 81% 10.5 mph S16.9 kmh S 14.8 mph23.8 kmh 29.75 in1007.5 mb 0.04 in1.0 mm 0.00 in/hr0.0 mm/hr 0.06 in1.5 mm
06:59 AM 64.8°F18.2°C 58.6°F14.8°C 81% 18.6 mph SSW29.9 kmh SSW 18.6 mph29.9 kmh 29.75 in1007.5 mb 0.04 in1.0 mm 0.00 in/hr0.0 mm/hr 0.06 in1.5 mm
07:05 AM 64.9°F18.3°C 58.6°F14.8°C 80% 7.2 mph SSE11.6 kmh SSE 18.6 mph29.9 kmh 29.75 in1007.5 mb 0.04 in1.0 mm 0.00 in/hr0.0 mm/hr 0.06 in1.5 mm
07:10 AM 65.1°F18.4°C 58.4°F14.7°C 79% 11.2 mph S18.0 kmh S 17.7 mph28.5 kmh 29.75 in1007.5 mb 0.02 in0.5 mm 0.00 in/hr0.0 mm/hr 0.06 in1.5 mm
07:14 AM 65.3°F18.5°C 58.6°F14.8°C 79% 6.5 mph SW10.5 kmh SW 16.1 mph25.9 kmh 29.75 in1007.5 mb 0.02 in0.5 mm 0.00 in/hr0.0 mm/hr 0.06 in1.5 mm
07:20 AM 65.5°F18.6°C 58.8°F14.9°C 79% 14.8 mph S23.8 kmh S 17.2 mph27.7 kmh 29.76 in1007.8 mb 0.00 in0.0 mm 0.00 in/hr0.0 mm/hr 0.06 in1.5 mm
07:25 AM 65.5°F18.6°C 58.8°F14.9°C 79% 11.9 mph SSW19.2 kmh SSW 17.2 mph27.7 kmh 29.75 in1007.5 mb 0.00 in0.0 mm 0.00 in/hr0.0 mm/hr 0.06 in1.5 mm
07:29 AM 65.8°F18.8°C 59.2°F15.1°C 79% 6.9 mph SSW11.1 kmh SSW 14.8 mph23.8 kmh 29.76 in1007.8 mb 0.00 in0.0 mm 0.00 in/hr0.0 mm/hr 0.06 in1.5 mm
07:35 AM 65.8°F18.8°C 59.2°F15.1°C 79% 10.1 mph S16.3 kmh S 17.7 mph28.5 kmh 29.76 in1007.8 mb 0.00 in0.0 mm 0.00 in/hr0.0 mm/hr 0.06 in1.5 mm
07:40 AM 65.8°F18.8°C 59.2°F15.1°C 79% 6.9 mph S11.1 kmh S 17.7 mph28.5 kmh 29.76 in1007.8 mb 0.00 in0.0 mm 0.00 in/hr0.0 mm/hr 0.06 in1.5 mm
07:44 AM 65.8°F18.8°C 59.2°F15.1°C 79% 4.3 mph SSW6.9 kmh SSW 10.7 mph17.2 kmh 29.76 in1007.8 mb 0.00 in0.0 mm 0.00 in/hr0.0 mm/hr 0.06 in1.5 mm
07:51 AM 65.7°F18.7°C 59.2°F15.1°C 79% 14.1 mph SSW22.7 kmh SSW 14.1 mph22.7 kmh 29.76 in1007.8 mb 0.00 in0.0 mm 0.00 in/hr0.0 mm/hr 0.06 in1.5 mm
07:55 AM 65.7°F18.7°C 59.0°F15.0°C 79% 10.3 mph S16.6 kmh S 14.1 mph22.7 kmh 29.76 in1007.8 mb 0.00 in0.0 mm 0.00 in/hr0.0 mm/hr 0.06 in1.5 mm
07:59 AM 65.5°F18.6°C 58.8°F14.9°C 79% 1.1 mph SSE1.8 kmh SSE 14.1 mph22.7 kmh 29.76 in1007.8 mb 0.00 in0.0 mm 0.00 in/hr0.0 mm/hr 0.06 in1.5 mm
08:06 AM 65.5°F18.6°C 59.2°F15.1°C 80% 17.0 mph S27.4 kmh S 17.0 mph27.4 kmh 29.76 in1007.8 mb 0.00 in0.0 mm 0.00 in/hr0.0 mm/hr 0.06 in1.5 mm
08:10 AM 65.5°F18.6°C 59.2°F15.1°C 80% 11.0 mph SSW17.7 kmh SSW 17.0 mph27.4 kmh 29.77 in1008.1 mb 0.00 in0.0 mm 0.00 in/hr0.0 mm/hr 0.06 in1.5 mm
08:16 AM 66.0°F18.9°C 59.5°F15.3°C 80% 13.4 mph S21.6 kmh S 13.4 mph21.6 kmh 29.76 in1007.8 mb 0.00 in0.0 mm 0.00 in/hr0.0 mm/hr 0.06 in1.5 mm
08:21 AM 66.2°F19.0°C 59.9°F15.5°C 80% 5.4 mph SSW8.7 kmh SSW 13.4 mph21.6 kmh 29.76 in1007.8 mb 0.00 in0.0 mm 0.00 in/hr0.0 mm/hr 0.06 in1.5 mm
08:25 AM 66.6°F19.2°C 59.9°F15.5°C 79% 7.4 mph WNW11.9 kmh WNW 13.4 mph21.6 kmh 29.76 in1007.8 mb 0.00 in0.0 mm 0.00 in/hr0.0 mm/hr 0.06 in1.5 mm
08:31 AM 66.9°F19.4°C 60.2°F15.7°C 79% 7.2 mph SSW11.6 kmh SSW 11.0 mph17.7 kmh 29.76 in1007.8 mb 0.00 in0.0 mm 0.00 in/hr0.0 mm/hr 0.06 in1.5 mm
08:36 AM 67.3°F19.6°C 60.2°F15.7°C 78% 8.9 mph SW14.3 kmh SW 11.0 mph17.7 kmh 29.76 in1007.8 mb 0.00 in0.0 mm 0.00 in/hr0.0 mm/hr 0.06 in1.5 mm
08:40 AM 67.8°F19.9°C 60.8°F16.0°C 78% 12.8 mph WNW20.6 kmh WNW 12.8 mph20.6 kmh 29.76 in1007.8 mb 0.00 in0.0 mm 0.00 in/hr0.0 mm/hr 0.06 in1.5 mm
08:46 AM 68.4°F20.2°C 60.5°F15.8°C 76% 11.0 mph S17.7 kmh S 12.8 mph20.6 kmh 29.76 in1007.8 mb 0.00 in0.0 mm 0.00 in/hr0.0 mm/hr 0.06 in1.5 mm
08:51 AM 68.4°F20.2°C 60.5°F15.8°C 76% 14.3 mph S23.0 kmh S 14.3 mph23.0 kmh 29.76 in1007.8 mb 0.00 in0.0 mm 0.00 in/hr0.0 mm/hr 0.06 in1.5 mm
08:55 AM 68.5°F20.3°C 60.7°F15.9°C 76% 6.7 mph SSW10.8 kmh SSW 14.3 mph23.0 kmh 29.76 in1007.8 mb 0.00 in0.0 mm 0.00 in/hr0.0 mm/hr 0.06 in1.5 mm
09:02 AM 68.7°F20.4°C 60.8°F16.0°C 76% 13.0 mph SSW20.9 kmh SSW 14.8 mph23.8 kmh 29.76 in1007.8 mb 0.00 in0.0 mm 0.00 in/hr0.0 mm/hr 0.06 in1.5 mm
09:06 AM 68.7°F20.4°C 60.5°F15.8°C 75% 13.0 mph SSW20.9 kmh SSW 14.8 mph23.8 kmh 29.76 in1007.8 mb 0.00 in0.0 mm 0.00 in/hr0.0 mm/hr 0.06 in1.5 mm
09:09 AM 69.3°F20.7°C 60.8°F16.0°C 75% 9.9 mph SSW15.9 kmh SSW 13.0 mph20.9 kmh 29.76 in1007.8 mb 0.00 in0.0 mm 0.00 in/hr0.0 mm/hr 0.06 in1.5 mm
09:16 AM 69.6°F20.9°C 60.9°F16.1°C 74% 6.1 mph SE9.8 kmh SE 13.9 mph22.4 kmh 29.76 in1007.8 mb 0.00 in0.0 mm 0.00 in/hr0.0 mm/hr 0.06 in1.5 mm
09:20 AM 69.6°F20.9°C 60.9°F16.1°C 74% 8.9 mph SSW14.3 kmh SSW 13.9 mph22.4 kmh 29.76 in1007.8 mb 0.00 in0.0 mm 0.00 in/hr0.0 mm/hr 0.06 in1.5 mm
09:24 AM 69.3°F20.7°C 60.7°F15.9°C 74% 5.6 mph SSW9.0 kmh SSW 9.2 mph14.8 kmh 29.76 in1007.8 mb 0.00 in0.0 mm 0.00 in/hr0.0 mm/hr 0.06 in1.5 mm
09:31 AM 69.3°F20.7°C 60.6°F15.9°C 74% 11.2 mph SSE18.0 kmh SSE 13.2 mph21.2 kmh 29.76 in1007.8 mb 0.00 in0.0 mm 0.00 in/hr0.0 mm/hr 0.06 in1.5 mm
09:35 AM 69.3°F20.7°C 60.6°F15.9°C 74% 9.6 mph SSW15.4 kmh SSW 16.3 mph26.2 kmh 29.76 in1007.8 mb 0.00 in0.0 mm 0.00 in/hr0.0 mm/hr 0.06 in1.5 mm
09:39 AM 69.6°F20.9°C 60.7°F15.9°C 74% 15.2 mph S24.5 kmh S 16.3 mph26.2 kmh 29.77 in1008.1 mb 0.00 in0.0 mm 0.00 in/hr0.0 mm/hr 0.06 in1.5 mm
09:46 AM 69.6°F20.9°C 60.9°F16.1°C 74% 17.9 mph S28.8 kmh S 17.9 mph28.8 kmh 29.76 in1007.8 mb 0.00 in0.0 mm 0.00 in/hr0.0 mm/hr 0.06 in1.5 mm
09:50 AM 69.6°F20.9°C 60.5°F15.8°C 73% 16.3 mph SSE26.2 kmh SSE 17.9 mph28.8 kmh 29.77 in1008.1 mb 0.00 in0.0 mm 0.00 in/hr0.0 mm/hr 0.06 in1.5 mm
09:56 AM 69.6°F20.9°C 60.5°F15.8°C 73% 16.6 mph S26.7 kmh S 16.6 mph26.7 kmh 29.77 in1008.1 mb 0.00 in0.0 mm 0.00 in/hr0.0 mm/hr 0.06 in1.5 mm
10:01 AM 69.6°F20.9°C 60.5°F15.8°C 73% 7.8 mph SSW12.6 kmh SSW 16.6 mph26.7 kmh 29.77 in1008.1 mb 0.00 in0.0 mm 0.00 in/hr0.0 mm/hr 0.06 in1.5 mm
10:05 AM 69.4°F20.8°C 60.4°F15.8°C 73% 18.8 mph SSW30.3 kmh SSW 18.8 mph30.3 kmh 29.77 in1008.1 mb 0.00 in0.0 mm 0.00 in/hr0.0 mm/hr 0.06 in1.5 mm
10:12 AM 69.4°F20.8°C 60.7°F15.9°C 74% 10.5 mph SSW16.9 kmh SSW 18.8 mph30.3 kmh 29.77 in1008.1 mb 0.00 in0.0 mm 0.00 in/hr0.0 mm/hr 0.06 in1.5 mm
10:16 AM 69.4°F20.8°C 60.7°F15.9°C 74% 5.1 mph SW8.2 kmh SW 18.8 mph30.3 kmh 29.77 in1008.1 mb 0.00 in0.0 mm 0.00 in/hr0.0 mm/hr 0.06 in1.5 mm
10:20 AM 70.2°F21.2°C 60.9°F16.1°C 74% 17.9 mph S28.8 kmh S 17.9 mph28.8 kmh 29.77 in1008.1 mb 0.00 in0.0 mm 0.00 in/hr0.0 mm/hr 0.06 in1.5 mm
10:27 AM 71.4°F21.9°C 61.9°F16.6°C 72% 6.7 mph S10.8 kmh S 17.9 mph28.8 kmh 29.76 in1007.8 mb 0.00 in0.0 mm 0.00 in/hr0.0 mm/hr 0.06 in1.5 mm
10:31 AM 72.1°F22.3°C 62.3°F16.8°C 71% 7.8 mph SSE12.6 kmh SSE 17.9 mph28.8 kmh 29.76 in1007.8 mb 0.00 in0.0 mm 0.00 in/hr0.0 mm/hr 0.06 in1.5 mm
10:35 AM 72.7°F22.6°C 62.1°F16.7°C 70% 2.9 mph S4.7 kmh S 13.2 mph21.2 kmh 29.77 in1008.1 mb 0.00 in0.0 mm 0.00 in/hr0.0 mm/hr 0.06 in1.5 mm
10:42 AM 73.2°F22.9°C 62.5°F16.9°C 69% 6.9 mph S11.1 kmh S 13.2 mph21.2 kmh 29.76 in1007.8 mb 0.00 in0.0 mm 0.00 in/hr0.0 mm/hr 0.06 in1.5 mm
10:46 AM 73.6°F23.1°C 62.9°F17.2°C 69% 6.0 mph SSE9.7 kmh SSE 6.9 mph11.1 kmh 29.77 in1008.1 mb 0.00 in0.0 mm 0.00 in/hr0.0 mm/hr 0.06 in1.5 mm
10:52 AM 74.3°F23.5°C 62.6°F17.0°C 67% 7.2 mph SSE11.6 kmh SSE 14.5 mph23.3 kmh 29.77 in1008.1 mb 0.00 in0.0 mm 0.00 in/hr0.0 mm/hr 0.06 in1.5 mm
10:57 AM 74.5°F23.6°C 62.8°F17.1°C 67% 5.4 mph WSW8.7 kmh WSW 14.5 mph23.3 kmh 29.77 in1008.1 mb 0.00 in0.0 mm 0.00 in/hr0.0 mm/hr 0.06 in1.5 mm
11:01 AM 74.8°F23.8°C 63.1°F17.3°C 67% 9.8 mph SW15.8 kmh SW 9.8 mph15.8 kmh 29.77 in1008.1 mb 0.00 in0.0 mm 0.00 in/hr0.0 mm/hr 0.06 in1.5 mm
11:07 AM 74.8°F23.8°C 62.7°F17.1°C 66% 12.5 mph SW20.1 kmh SW 18.3 mph29.5 kmh 29.77 in1008.1 mb 0.00 in0.0 mm 0.00 in/hr0.0 mm/hr 0.06 in1.5 mm
11:14 AM 75.0°F23.9°C 62.9°F17.2°C 66% 3.8 mph SW6.1 kmh SW 12.5 mph20.1 kmh 29.76 in1007.8 mb 0.00 in0.0 mm 0.00 in/hr0.0 mm/hr 0.06 in1.5 mm
11:18 AM 74.8°F23.8°C 62.7°F17.1°C 66% 10.1 mph SSW16.3 kmh SSW 10.1 mph16.3 kmh 29.76 in1007.8 mb 0.00 in0.0 mm 0.00 in/hr0.0 mm/hr 0.06 in1.5 mm
11:25 AM 74.5°F23.6°C 62.3°F16.8°C 66% Calm Calm 10.1 mph16.3 kmh 29.76 in1007.8 mb 0.00 in0.0 mm 0.00 in/hr0.0 mm/hr 0.06 in1.5 mm
11:29 AM 74.5°F23.6°C 62.3°F16.8°C 66% 8.9 mph SSW14.3 kmh SSW 9.8 mph15.8 kmh 29.76 in1007.8 mb 0.00 in0.0 mm 0.00 in/hr0.0 mm/hr 0.06 in1.5 mm
11:35 AM 74.8°F23.8°C 62.7°F17.1°C 66% 7.4 mph SSW11.9 kmh SSW 8.9 mph14.3 kmh 29.76 in1007.8 mb 0.00 in0.0 mm 0.00 in/hr0.0 mm/hr 0.06 in1.5 mm
11:40 AM 75.0°F23.9°C 63.3°F17.4°C 67% 13.9 mph SSE22.4 kmh SSE 13.9 mph22.4 kmh 29.77 in1008.1 mb 0.00 in0.0 mm 0.00 in/hr0.0 mm/hr 0.06 in1.5 mm
11:44 AM 75.0°F23.9°C 62.4°F16.9°C 65% 21.9 mph S35.2 kmh S 32.4 mph52.1 kmh 29.76 in1007.8 mb 0.00 in0.0 mm 0.00 in/hr0.0 mm/hr 0.06 in1.5 mm
11:49 AM 74.8°F23.8°C 62.7°F17.1°C 66% 6.9 mph W11.1 kmh W 32.4 mph52.1 kmh 29.76 in1007.8 mb 0.00 in0.0 mm 0.00 in/hr0.0 mm/hr 0.06 in1.5 mm
11:55 AM 75.7°F24.3°C 62.7°F17.1°C 64% 5.6 mph NW9.0 kmh NW 13.2 mph21.2 kmh 29.75 in1007.5 mb 0.00 in0.0 mm 0.00 in/hr0.0 mm/hr 0.06 in1.5 mm
12:00 PM 76.3°F24.6°C 63.2°F17.3°C 64% 16.6 mph SSE26.7 kmh SSE 16.6 mph26.7 kmh 29.75 in1007.5 mb 0.00 in0.0 mm 0.00 in/hr0.0 mm/hr 0.06 in1.5 mm
12:04 PM 76.5°F24.7°C 63.3°F17.4°C 64% 13.4 mph SSW21.6 kmh SSW 16.6 mph26.7 kmh 29.75 in1007.5 mb 0.00 in0.0 mm 0.00 in/hr0.0 mm/hr 0.06 in1.5 mm
12:10 PM 75.9°F24.4°C 62.7°F17.1°C 63% 23.3 mph S37.5 kmh S 23.3 mph37.5 kmh 29.76 in1007.8 mb 0.00 in0.0 mm 0.00 in/hr0.0 mm/hr 0.06 in1.5 mm
12:15 PM 75.7°F24.3°C 62.7°F17.1°C 64% 7.2 mph SSE11.6 kmh SSE 23.3 mph37.5 kmh 29.76 in1007.8 mb 0.00 in0.0 mm 0.00 in/hr0.0 mm/hr 0.06 in1.5 mm
12:19 PM 75.0°F23.9°C 62.4°F16.9°C 65% 14.5 mph SSW23.3 kmh SSW 23.3 mph37.5 kmh 29.77 in1008.1 mb 0.00 in0.0 mm 0.00 in/hr0.0 mm/hr 0.06 in1.5 mm
12:24 PM 75.0°F23.9°C 62.4°F16.9°C 66% 6.3 mph SSW10.1 kmh SSW 14.5 mph23.3 kmh 29.76 in1007.8 mb 0.00 in0.0 mm 0.00 in/hr0.0 mm/hr 0.06 in1.5 mm
12:30 PM 75.0°F23.9°C 62.9°F17.2°C 66% 6.0 mph SW9.7 kmh SW 6.3 mph10.1 kmh 29.77 in1008.1 mb 0.00 in0.0 mm 0.00 in/hr0.0 mm/hr 0.06 in1.5 mm
12:35 PM 75.0°F23.9°C 62.4°F16.9°C 65% 17.0 mph SW27.4 kmh SW 17.0 mph27.4 kmh 29.77 in1008.1 mb 0.00 in0.0 mm 0.00 in/hr0.0 mm/hr 0.06 in1.5 mm
12:39 PM 75.2°F24.0°C 62.4°F16.9°C 65% 13.0 mph SSE20.9 kmh SSE 17.0 mph27.4 kmh 29.76 in1007.8 mb 0.00 in0.0 mm 0.00 in/hr0.0 mm/hr 0.06 in1.5 mm
12:46 PM 75.6°F24.2°C 62.5°F16.9°C 64% 17.4 mph SSW28.0 kmh SSW 24.6 mph39.6 kmh 29.76 in1007.8 mb 0.00 in0.0 mm 0.00 in/hr0.0 mm/hr 0.06 in1.5 mm
12:50 PM 75.9°F24.4°C 62.7°F17.1°C 64% 17.4 mph S28.0 kmh S 24.6 mph39.6 kmh 29.76 in1007.8 mb 0.00 in0.0 mm 0.00 in/hr0.0 mm/hr 0.06 in1.5 mm
12:54 PM 75.7°F24.3°C 62.8°F17.1°C 64% 14.1 mph SW22.7 kmh SW 24.6 mph39.6 kmh 29.77 in1008.1 mb 0.00 in0.0 mm 0.00 in/hr0.0 mm/hr 0.06 in1.5 mm
01:01 PM 75.7°F24.3°C 62.7°F17.1°C 64% 16.6 mph SSW26.7 kmh SSW 16.6 mph26.7 kmh 29.76 in1007.8 mb 0.00 in0.0 mm 0.00 in/hr0.0 mm/hr 0.06 in1.5 mm
01:05 PM 75.6°F24.2°C 62.5°F16.9°C 64% 17.2 mph SSE27.7 kmh SSE 17.2 mph27.7 kmh 29.76 in1007.8 mb 0.00 in0.0 mm 0.00 in/hr0.0 mm/hr 0.06 in1.5 mm
01:08 PM 75.9°F24.4°C 62.7°F17.1°C 65% 17.2 mph SSE27.7 kmh SSE 17.2 mph27.7 kmh 29.76 in1007.8 mb 0.00 in0.0 mm 0.00 in/hr0.0 mm/hr 0.06 in1.5 mm
01:15 PM 76.3°F24.6°C 63.2°F17.3°C 64% Calm Calm 17.2 mph27.7 kmh 29.75 in1007.5 mb 0.00 in0.0 mm 0.00 in/hr0.0 mm/hr 0.06 in1.5 mm
01:19 PM 76.6°F24.8°C 63.1°F17.3°C 63% 11.9 mph SSW19.2 kmh SSW 11.9 mph19.2 kmh 29.75 in1007.5 mb 0.00 in0.0 mm 0.00 in/hr0.0 mm/hr 0.06 in1.5 mm
01:23 PM 76.6°F24.8°C 63.1°F17.3°C 63% 9.4 mph S15.1 kmh S 11.9 mph19.2 kmh 29.76 in1007.8 mb 0.00 in0.0 mm 0.00 in/hr0.0 mm/hr 0.06 in1.5 mm
01:30 PM 76.6°F24.8°C 63.1°F17.3°C 63% 16.1 mph SSE25.9 kmh SSE 16.1 mph25.9 kmh 29.76 in1007.8 mb 0.00 in0.0 mm 0.00 in/hr0.0 mm/hr 0.06 in1.5 mm
01:34 PM 76.3°F24.6°C 63.2°F17.3°C 64% 9.2 mph SSW14.8 kmh SSW 16.1 mph25.9 kmh 29.75 in1007.5 mb 0.00 in0.0 mm 0.00 in/hr0.0 mm/hr 0.06 in1.5 mm
01:41 PM 76.3°F24.6°C 63.2°F17.3°C 64% 8.7 mph SW14.0 kmh SW 9.2 mph14.8 kmh 29.75 in1007.5 mb 0.00 in0.0 mm 0.00 in/hr0.0 mm/hr 0.06 in1.5 mm
01:45 PM 76.1°F24.5°C 63.0°F17.2°C 64% 6.5 mph SW10.5 kmh SW 8.7 mph14.0 kmh 29.75 in1007.5 mb 0.00 in0.0 mm 0.00 in/hr0.0 mm/hr 0.06 in1.5 mm
01:51 PM 75.9°F24.4°C 62.8°F17.1°C 64% 12.8 mph SSW20.6 kmh SSW 16.3 mph26.2 kmh 29.75 in1007.5 mb 0.00 in0.0 mm 0.00 in/hr0.0 mm/hr 0.06 in1.5 mm
01:56 PM 75.9°F24.4°C 62.8°F17.1°C 64% 10.7 mph S17.2 kmh S 16.3 mph26.2 kmh 29.74 in1007.1 mb 0.00 in0.0 mm 0.00 in/hr0.0 mm/hr 0.06 in1.5 mm
02:00 PM 75.9°F24.4°C 62.8°F17.1°C 64% 8.7 mph SW14.0 kmh SW 12.8 mph20.6 kmh 29.74 in1007.1 mb 0.00 in0.0 mm 0.00 in/hr0.0 mm/hr 0.06 in1.5 mm
02:06 PM 75.7°F24.3°C 63.3°F17.4°C 65% 8.1 mph S13.0 kmh S 8.7 mph14.0 kmh 29.74 in1007.1 mb 0.00 in0.0 mm 0.00 in/hr0.0 mm/hr 0.06 in1.5 mm
02:11 PM 75.6°F24.2°C 62.9°F17.2°C 65% 8.7 mph SW14.0 kmh SW 8.9 mph14.3 kmh 29.74 in1007.1 mb 0.00 in0.0 mm 0.00 in/hr0.0 mm/hr 0.06 in1.5 mm
02:15 PM 75.4°F24.1°C 62.8°F17.1°C 65% 4.5 mph S7.2 kmh S 8.9 mph14.3 kmh 29.74 in1007.1 mb 0.00 in0.0 mm 0.00 in/hr0.0 mm/hr 0.06 in1.5 mm
02:20 PM 75.4°F24.1°C 62.8°F17.1°C 65% 12.5 mph S20.1 kmh S 25.5 mph41.0 kmh 29.73 in1006.8 mb 0.00 in0.0 mm 0.00 in/hr0.0 mm/hr 0.06 in1.5 mm
02:26 PM 75.4°F24.1°C 63.2°F17.3°C 66% 13.4 mph SSW21.6 kmh SSW 25.5 mph41.0 kmh 29.73 in1006.8 mb 0.00 in0.0 mm 0.00 in/hr0.0 mm/hr 0.06 in1.5 mm
02:31 PM 75.4°F24.1°C 63.2°F17.3°C 66% 10.7 mph S17.2 kmh S 13.4 mph21.6 kmh 29.73 in1006.8 mb 0.00 in0.0 mm 0.00 in/hr0.0 mm/hr 0.06 in1.5 mm
02:35 PM 75.4°F24.1°C 63.2°F17.3°C 66% 14.5 mph SSW23.3 kmh SSW 14.5 mph23.3 kmh 29.74 in1007.1 mb 0.00 in0.0 mm 0.00 in/hr0.0 mm/hr 0.06 in1.5 mm
02:41 PM 75.4°F24.1°C 63.2°F17.3°C 66% 12.8 mph S20.6 kmh S 14.5 mph23.3 kmh 29.73 in1006.8 mb 0.00 in0.0 mm 0.00 in/hr0.0 mm/hr 0.06 in1.5 mm
02:46 PM 75.7°F24.3°C 63.4°F17.4°C 66% 10.5 mph SSE16.9 kmh SSE 12.8 mph20.6 kmh 29.72 in1006.4 mb 0.00 in0.0 mm 0.00 in/hr0.0 mm/hr 0.06 in1.5 mm
02:50 PM 75.6°F24.2°C 63.4°F17.4°C 66% 10.1 mph S16.3 kmh S 12.8 mph20.6 kmh 29.73 in1006.8 mb 0.00 in0.0 mm 0.00 in/hr0.0 mm/hr 0.06 in1.5 mm
02:56 PM 75.7°F24.3°C 63.1°F17.3°C 65% 16.6 mph SSW26.7 kmh SSW 16.6 mph26.7 kmh 29.72 in1006.4 mb 0.00 in0.0 mm 0.00 in/hr0.0 mm/hr 0.06 in1.5 mm
03:01 PM 75.7°F24.3°C 63.1°F17.3°C 65% 11.2 mph SSW18.0 kmh SSW 16.6 mph26.7 kmh 29.72 in1006.4 mb 0.00 in0.0 mm 0.00 in/hr0.0 mm/hr 0.06 in1.5 mm
03:05 PM 75.7°F24.3°C 63.1°F17.3°C 65% 17.4 mph SSW28.0 kmh SSW 17.4 mph28.0 kmh 29.73 in1006.8 mb 0.00 in0.0 mm 0.00 in/hr0.0 mm/hr 0.06 in1.5 mm
03:12 PM 75.7°F24.3°C 63.1°F17.3°C 65% 12.3 mph WSW19.8 kmh WSW 17.4 mph28.0 kmh 29.73 in1006.8 mb 0.00 in0.0 mm 0.00 in/hr0.0 mm/hr 0.06 in1.5 mm
03:16 PM 75.6°F24.2°C 63.1°F17.3°C 65% 21.9 mph S35.2 kmh S 21.9 mph35.2 kmh 29.73 in1006.8 mb 0.00 in0.0 mm 0.00 in/hr0.0 mm/hr 0.06 in1.5 mm
03:20 PM 75.6°F24.2°C 62.9°F17.2°C 65% 17.9 mph S28.8 kmh S 21.9 mph35.2 kmh 29.73 in1006.8 mb 0.00 in0.0 mm 0.00 in/hr0.0 mm/hr 0.06 in1.5 mm
03:27 PM 75.4°F24.1°C 62.8°F17.1°C 65% 10.7 mph SSE17.2 kmh SSE 17.9 mph28.8 kmh 29.73 in1006.8 mb 0.00 in0.0 mm 0.00 in/hr0.0 mm/hr 0.06 in1.5 mm
03:31 PM 75.4°F24.1°C 62.8°F17.1°C 65% 8.7 mph SW14.0 kmh SW 17.0 mph27.4 kmh 29.72 in1006.4 mb 0.00 in0.0 mm 0.00 in/hr0.0 mm/hr 0.06 in1.5 mm
03:36 PM 75.4°F24.1°C 63.2°F17.3°C 66% 17.9 mph S28.8 kmh S 23.3 mph37.5 kmh 29.72 in1006.4 mb 0.00 in0.0 mm 0.00 in/hr0.0 mm/hr 0.06 in1.5 mm
03:42 PM 75.0°F23.9°C 62.9°F17.2°C 66% 13.9 mph S22.4 kmh S 23.3 mph37.5 kmh 29.72 in1006.4 mb 0.00 in0.0 mm 0.00 in/hr0.0 mm/hr 0.06 in1.5 mm
03:46 PM 75.2°F24.0°C 63.0°F17.2°C 66% 13.9 mph S22.4 kmh S 13.9 mph22.4 kmh 29.72 in1006.4 mb 0.00 in0.0 mm 0.00 in/hr0.0 mm/hr 0.06 in1.5 mm
03:51 PM 75.4°F24.1°C 63.2°F17.3°C 66% 20.4 mph SSW32.8 kmh SSW 20.4 mph32.8 kmh 29.72 in1006.4 mb 0.00 in0.0 mm 0.00 in/hr0.0 mm/hr 0.06 in1.5 mm
03:55 PM 75.4°F24.1°C 63.2°F17.3°C 66% 14.3 mph S23.0 kmh S 20.4 mph32.8 kmh 29.72 in1006.4 mb 0.00 in0.0 mm 0.00 in/hr0.0 mm/hr 0.06 in1.5 mm
04:02 PM 75.0°F23.9°C 63.0°F17.2°C 66% 14.1 mph S22.7 kmh S 20.4 mph32.8 kmh 29.72 in1006.4 mb 0.00 in0.0 mm 0.00 in/hr0.0 mm/hr 0.06 in1.5 mm
04:06 PM 75.0°F23.9°C 62.9°F17.2°C 66% 14.3 mph S23.0 kmh S 17.0 mph27.4 kmh 29.73 in1006.8 mb 0.00 in0.0 mm 0.00 in/hr0.0 mm/hr 0.06 in1.5 mm
04:10 PM 74.8°F23.8°C 62.7°F17.1°C 66% 13.0 mph SSE20.9 kmh SSE 18.1 mph29.1 kmh 29.73 in1006.8 mb 0.00 in0.0 mm 0.00 in/hr0.0 mm/hr 0.06 in1.5 mm
04:17 PM 74.8°F23.8°C 62.7°F17.1°C 66% 18.3 mph S29.5 kmh S 18.3 mph29.5 kmh 29.72 in1006.4 mb 0.00 in0.0 mm 0.00 in/hr0.0 mm/hr 0.06 in1.5 mm
04:21 PM 74.8°F23.8°C 62.7°F17.1°C 66% 18.3 mph SSW29.5 kmh SSW 18.3 mph29.5 kmh 29.73 in1006.8 mb 0.00 in0.0 mm 0.00 in/hr0.0 mm/hr 0.06 in1.5 mm
04:28 PM 74.5°F23.6°C 62.3°F16.8°C 66% 14.3 mph S23.0 kmh S 27.1 mph43.6 kmh 29.72 in1006.4 mb 0.00 in0.0 mm 0.00 in/hr0.0 mm/hr 0.06 in1.5 mm
04:32 PM 74.3°F23.5°C 62.6°F17.0°C 67% 20.8 mph SSE33.5 kmh SSE 27.1 mph43.6 kmh 29.72 in1006.4 mb 0.00 in0.0 mm 0.00 in/hr0.0 mm/hr 0.06 in1.5 mm
04:39 PM 74.1°F23.4°C 62.5°F16.9°C 67% 19.7 mph SSE31.7 kmh SSE 20.8 mph33.5 kmh 29.72 in1006.4 mb 0.00 in0.0 mm 0.00 in/hr0.0 mm/hr 0.06 in1.5 mm
04:43 PM 74.3°F23.5°C 62.6°F17.0°C 67% 13.4 mph S21.6 kmh S 19.7 mph31.7 kmh 29.72 in1006.4 mb 0.00 in0.0 mm 0.00 in/hr0.0 mm/hr 0.06 in1.5 mm
04:47 PM 74.3°F23.5°C 62.6°F17.0°C 67% 20.6 mph S33.2 kmh S 20.6 mph33.2 kmh 29.71 in1006.1 mb 0.00 in0.0 mm 0.00 in/hr0.0 mm/hr 0.06 in1.5 mm
04:54 PM 74.1°F23.4°C 62.6°F17.0°C 67% 17.0 mph S27.4 kmh S 20.6 mph33.2 kmh 29.71 in1006.1 mb 0.00 in0.0 mm 0.00 in/hr0.0 mm/hr 0.06 in1.5 mm
04:58 PM 74.3°F23.5°C 62.6°F17.0°C 67% 13.9 mph SSE22.4 kmh SSE 17.0 mph27.4 kmh 29.70 in1005.8 mb 0.00 in0.0 mm 0.00 in/hr0.0 mm/hr 0.06 in1.5 mm
05:03 PM 74.5°F23.6°C 62.8°F17.1°C 67% 12.8 mph SSE20.6 kmh SSE 29.5 mph47.5 kmh 29.70 in1005.8 mb 0.00 in0.0 mm 0.00 in/hr0.0 mm/hr 0.06 in1.5 mm
05:07 PM 74.8°F23.8°C 63.0°F17.2°C 67% 14.3 mph SSE23.0 kmh SSE 29.5 mph47.5 kmh 29.70 in1005.8 mb 0.00 in0.0 mm 0.00 in/hr0.0 mm/hr 0.06 in1.5 mm
05:13 PM 74.8°F23.8°C 62.9°F17.2°C 66% 8.3 mph SSE13.4 kmh SSE 14.3 mph23.0 kmh 29.70 in1005.8 mb 0.00 in0.0 mm 0.00 in/hr0.0 mm/hr 0.06 in1.5 mm
05:17 PM 74.5°F23.6°C 62.5°F16.9°C 66% 13.9 mph SSE22.4 kmh SSE 13.9 mph22.4 kmh 29.70 in1005.8 mb 0.00 in0.0 mm 0.00 in/hr0.0 mm/hr 0.06 in1.5 mm
05:24 PM 74.1°F23.4°C 62.5°F16.9°C 67% 15.2 mph S24.5 kmh S 15.2 mph24.5 kmh 29.70 in1005.8 mb 0.00 in0.0 mm 0.00 in/hr0.0 mm/hr 0.06 in1.5 mm
05:28 PM 73.9°F23.3°C 62.3°F16.8°C 67% 19.0 mph SSE30.6 kmh SSE 21.5 mph34.6 kmh 29.70 in1005.8 mb 0.00 in0.0 mm 0.00 in/hr0.0 mm/hr 0.06 in1.5 mm
05:35 PM 73.6°F23.1°C 62.0°F16.7°C 67% 6.9 mph SSE11.1 kmh SSE 23.0 mph37.0 kmh 29.70 in1005.8 mb 0.00 in0.0 mm 0.00 in/hr0.0 mm/hr 0.06 in1.5 mm
05:39 PM 73.6°F23.1°C 62.4°F16.9°C 68% 11.4 mph SE18.3 kmh SE 23.0 mph37.0 kmh 29.69 in1005.4 mb 0.00 in0.0 mm 0.00 in/hr0.0 mm/hr 0.06 in1.5 mm
05:44 PM 73.2°F22.9°C 62.1°F16.7°C 68% 15.9 mph SSE25.6 kmh SSE 21.9 mph35.2 kmh 29.69 in1005.4 mb 0.00 in0.0 mm 0.00 in/hr0.0 mm/hr 0.06 in1.5 mm
05:50 PM 73.2°F22.9°C 62.1°F16.7°C 69% 13.6 mph S21.9 kmh S 21.9 mph35.2 kmh 29.68 in1005.1 mb 0.00 in0.0 mm 0.00 in/hr0.0 mm/hr 0.06 in1.5 mm
05:54 PM 73.0°F22.8°C 62.3°F16.8°C 69% 15.0 mph SSW24.1 kmh SSW 15.9 mph25.6 kmh 29.68 in1005.1 mb 0.00 in0.0 mm 0.00 in/hr0.0 mm/hr 0.06 in1.5 mm
05:59 PM 73.0°F22.8°C 62.3°F16.8°C 68% 21.9 mph SSE35.2 kmh SSE 21.9 mph35.2 kmh 29.69 in1005.4 mb 0.00 in0.0 mm 0.00 in/hr0.0 mm/hr 0.06 in1.5 mm
06:04 PM 73.0°F22.8°C 61.9°F16.6°C 68% 10.3 mph S16.6 kmh S 25.3 mph40.7 kmh 29.68 in1005.1 mb 0.00 in0.0 mm 0.00 in/hr0.0 mm/hr 0.06 in1.5 mm
06:10 PM 73.0°F22.8°C 61.9°F16.6°C 68% 17.0 mph SSW27.4 kmh SSW 25.3 mph40.7 kmh 29.68 in1005.1 mb 0.00 in0.0 mm 0.00 in/hr0.0 mm/hr 0.06 in1.5 mm
06:14 PM 72.7°F22.6°C 61.5°F16.4°C 68% 9.6 mph S15.4 kmh S 22.4 mph36.0 kmh 29.68 in1005.1 mb 0.00 in0.0 mm 0.00 in/hr0.0 mm/hr 0.06 in1.5 mm
06:19 PM 72.7°F22.6°C 61.5°F16.4°C 68% 13.6 mph SSE21.9 kmh SSE 22.4 mph36.0 kmh 29.68 in1005.1 mb 0.00 in0.0 mm 0.00 in/hr0.0 mm/hr 0.06 in1.5 mm
06:25 PM 72.3°F22.4°C 61.6°F16.4°C 69% 12.5 mph SE20.1 kmh SE 13.6 mph21.9 kmh 29.68 in1005.1 mb 0.00 in0.0 mm 0.00 in/hr0.0 mm/hr 0.06 in1.5 mm
06:29 PM 72.3°F22.4°C 61.6°F16.4°C 69% 20.8 mph SSE33.5 kmh SSE 20.8 mph33.5 kmh 29.68 in1005.1 mb 0.00 in0.0 mm 0.00 in/hr0.0 mm/hr 0.06 in1.5 mm
06:34 PM 72.3°F22.4°C 61.6°F16.4°C 69% 20.1 mph S32.3 kmh S 20.8 mph33.5 kmh 29.68 in1005.1 mb 0.00 in0.0 mm 0.00 in/hr0.0 mm/hr 0.06 in1.5 mm
06:40 PM 72.1°F22.3°C 61.4°F16.3°C 69% 15.4 mph S24.8 kmh S 20.1 mph32.3 kmh 29.69 in1005.4 mb 0.00 in0.0 mm 0.00 in/hr0.0 mm/hr 0.06 in1.5 mm
06:45 PM 72.0°F22.2°C 60.8°F16.0°C 68% 20.4 mph SSE32.8 kmh SSE 20.4 mph32.8 kmh 29.69 in1005.4 mb 0.00 in0.0 mm 0.00 in/hr0.0 mm/hr 0.06 in1.5 mm
06:49 PM 71.8°F22.1°C 60.6°F15.9°C 68% 18.6 mph SSE29.9 kmh SSE 28.0 mph45.1 kmh 29.69 in1005.4 mb 0.00 in0.0 mm 0.00 in/hr0.0 mm/hr 0.06 in1.5 mm
06:54 PM 72.0°F22.2°C 60.8°F16.0°C 68% 16.9 mph SSE27.2 kmh SSE 28.0 mph45.1 kmh 29.69 in1005.4 mb 0.00 in0.0 mm 0.00 in/hr0.0 mm/hr 0.06 in1.5 mm
07:01 PM 71.8°F22.1°C 60.8°F16.0°C 68% 13.9 mph S22.4 kmh S 18.8 mph30.3 kmh 29.69 in1005.4 mb 0.00 in0.0 mm 0.00 in/hr0.0 mm/hr 0.06 in1.5 mm
07:05 PM 71.8°F22.1°C 60.6°F15.9°C 68% 9.8 mph S15.8 kmh S 15.0 mph24.1 kmh 29.68 in1005.1 mb 0.00 in0.0 mm 0.00 in/hr0.0 mm/hr 0.06 in1.5 mm
07:11 PM 71.8°F22.1°C 60.6°F15.9°C 68% 11.6 mph SSE18.7 kmh SSE 28.0 mph45.1 kmh 29.68 in1005.1 mb 0.00 in0.0 mm 0.00 in/hr0.0 mm/hr 0.06 in1.5 mm
07:15 PM 71.8°F22.1°C 60.6°F15.9°C 68% 13.2 mph SSE21.2 kmh SSE 28.0 mph45.1 kmh 29.68 in1005.1 mb 0.00 in0.0 mm 0.00 in/hr0.0 mm/hr 0.06 in1.5 mm
07:19 PM 71.6°F22.0°C 60.5°F15.8°C 68% 15.2 mph SSE24.5 kmh SSE 15.9 mph25.6 kmh 29.67 in1004.7 mb 0.00 in0.0 mm 0.00 in/hr0.0 mm/hr 0.06 in1.5 mm
07:25 PM 71.4°F21.9°C 60.3°F15.7°C 68% 17.4 mph SSE28.0 kmh SSE 17.4 mph28.0 kmh 29.68 in1005.1 mb 0.00 in0.0 mm 0.00 in/hr0.0 mm/hr 0.06 in1.5 mm
07:30 PM 71.4°F21.9°C 60.7°F15.9°C 69% 9.4 mph SE15.1 kmh SE 17.4 mph28.0 kmh 29.67 in1004.7 mb 0.00 in0.0 mm 0.00 in/hr0.0 mm/hr 0.06 in1.5 mm
07:36 PM 71.4°F21.9°C 60.7°F15.9°C 69% 17.0 mph SSE27.4 kmh SSE 17.0 mph27.4 kmh 29.67 in1004.7 mb 0.00 in0.0 mm 0.00 in/hr0.0 mm/hr 0.06 in1.5 mm
07:40 PM 71.4°F21.9°C 60.7°F15.9°C 69% 11.4 mph SSE18.3 kmh SSE 17.0 mph27.4 kmh 29.67 in1004.7 mb 0.00 in0.0 mm 0.00 in/hr0.0 mm/hr 0.06 in1.5 mm
07:45 PM 71.4°F21.9°C 60.7°F15.9°C 69% 15.2 mph S24.5 kmh S 17.4 mph28.0 kmh 29.67 in1004.7 mb 0.00 in0.0 mm 0.00 in/hr0.0 mm/hr 0.06 in1.5 mm
07:51 PM 71.2°F21.8°C 60.5°F15.8°C 70% 19.0 mph SSE30.6 kmh SSE 19.0 mph30.6 kmh 29.68 in1005.1 mb 0.00 in0.0 mm 0.00 in/hr0.0 mm/hr 0.06 in1.5 mm
07:55 PM 70.9°F21.6°C 61.0°F16.1°C 70% 15.2 mph S24.5 kmh S 19.0 mph30.6 kmh 29.67 in1004.7 mb 0.00 in0.0 mm 0.00 in/hr0.0 mm/hr 0.06 in1.5 mm
08:00 PM 70.9°F21.6°C 60.6°F15.9°C 70% 17.2 mph SSE27.7 kmh SSE 19.0 mph30.6 kmh 29.68 in1005.1 mb 0.00 in0.0 mm 0.00 in/hr0.0 mm/hr 0.06 in1.5 mm
08:06 PM 71.1°F21.7°C 60.4°F15.8°C 69% 21.7 mph SE34.9 kmh SE 21.7 mph34.9 kmh 29.67 in1004.7 mb 0.00 in0.0 mm 0.00 in/hr0.0 mm/hr 0.06 in1.5 mm
08:10 PM 71.1°F21.7°C 60.4°F15.8°C 69% 10.5 mph SSE16.9 kmh SSE 21.7 mph34.9 kmh 29.67 in1004.7 mb 0.00 in0.0 mm 0.00 in/hr0.0 mm/hr 0.06 in1.5 mm
08:15 PM 71.2°F21.8°C 60.5°F15.8°C 69% 13.9 mph S22.4 kmh S 21.7 mph34.9 kmh 29.68 in1005.1 mb 0.00 in0.0 mm 0.00 in/hr0.0 mm/hr 0.06 in1.5 mm
08:22 PM 70.9°F21.6°C 60.6°F15.9°C 70% 15.7 mph SSE25.3 kmh SSE 17.7 mph28.5 kmh 29.68 in1005.1 mb 0.00 in0.0 mm 0.00 in/hr0.0 mm/hr 0.06 in1.5 mm
08:26 PM 70.5°F21.4°C 60.6°F15.9°C 71% 14.1 mph S22.7 kmh S 17.7 mph28.5 kmh 29.68 in1005.1 mb 0.00 in0.0 mm 0.00 in/hr0.0 mm/hr 0.06 in1.5 mm
08:30 PM 70.3°F21.3°C 60.5°F15.8°C 71% 13.2 mph SE21.2 kmh SE 17.7 mph28.5 kmh 29.68 in1005.1 mb 0.00 in0.0 mm 0.00 in/hr0.0 mm/hr 0.06 in1.5 mm
08:37 PM 70.0°F21.1°C 60.5°F15.8°C 72% 19.0 mph SSW30.6 kmh SSW 19.0 mph30.6 kmh 29.69 in1005.4 mb 0.00 in0.0 mm 0.00 in/hr0.0 mm/hr 0.06 in1.5 mm
08:41 PM 70.2°F21.2°C 60.7°F15.9°C 72% 20.8 mph S33.5 kmh S 20.8 mph33.5 kmh 29.70 in1005.8 mb 0.00 in0.0 mm 0.00 in/hr0.0 mm/hr 0.06 in1.5 mm
08:45 PM 70.0°F21.1°C 60.5°F15.8°C 73% 12.8 mph S20.6 kmh S 20.8 mph33.5 kmh 29.71 in1006.1 mb 0.00 in0.0 mm 0.00 in/hr0.0 mm/hr 0.06 in1.5 mm
08:52 PM 68.9°F20.5°C 61.0°F16.1°C 76% 15.7 mph S25.3 kmh S 15.7 mph25.3 kmh 29.74 in1007.1 mb 0.00 in0.0 mm 0.00 in/hr0.0 mm/hr 0.06 in1.5 mm
08:56 PM 67.8°F19.9°C 60.8°F16.0°C 78% 18.8 mph S30.3 kmh S 18.8 mph30.3 kmh 29.73 in1006.8 mb 0.00 in0.0 mm 0.00 in/hr0.0 mm/hr 0.06 in1.5 mm
09:00 PM 67.1°F19.5°C 60.8°F16.0°C 80% 18.1 mph SSE29.1 kmh SSE 18.8 mph30.3 kmh 29.72 in1006.4 mb 0.10 in2.5 mm 0.11 in/hr2.8 mm/hr 0.16 in4.1 mm
09:06 PM 66.4°F19.1°C 60.7°F15.9°C 82% 13.1 mph S21.1 kmh S 18.8 mph30.3 kmh 29.72 in1006.4 mb 0.12 in3.0 mm 0.20 in/hr5.1 mm/hr 0.18 in4.6 mm
09:10 PM 66.0°F18.9°C 60.9°F16.1°C 83% 10.5 mph SSE16.9 kmh SSE 18.1 mph29.1 kmh 29.71 in1006.1 mb 0.12 in3.0 mm 0.00 in/hr0.0 mm/hr 0.18 in4.6 mm
09:14 PM 65.8°F18.8°C 61.0°F16.1°C 84% 10.1 mph S16.3 kmh S 17.2 mph27.7 kmh 29.70 in1005.8 mb 0.14 in3.6 mm 0.30 in/hr7.6 mm/hr 0.20 in5.1 mm
09:21 PM 65.5°F18.6°C 61.2°F16.2°C 86% 23.0 mph S37.0 kmh S 23.0 mph37.0 kmh 29.71 in1006.1 mb 0.14 in3.6 mm 0.00 in/hr0.0 mm/hr 0.20 in5.1 mm
09:26 PM 65.5°F18.6°C 61.2°F16.2°C 86% 11.6 mph SSE18.7 kmh SSE 23.0 mph37.0 kmh 29.71 in1006.1 mb 0.18 in4.6 mm 0.48 in/hr12.2 mm/hr 0.24 in6.1 mm
09:30 PM 65.3°F18.5°C 61.0°F16.1°C 86% 10.1 mph S16.3 kmh S 23.0 mph37.0 kmh 29.70 in1005.8 mb 0.18 in4.6 mm 0.00 in/hr0.0 mm/hr 0.24 in6.1 mm
09:36 PM 65.1°F18.4°C 61.3°F16.3°C 87% 21.0 mph S33.8 kmh S 21.0 mph33.8 kmh 29.69 in1005.4 mb 0.18 in4.6 mm 0.00 in/hr0.0 mm/hr 0.24 in6.1 mm
09:41 PM 65.1°F18.4°C 61.2°F16.2°C 87% 12.8 mph SSE20.6 kmh SSE 21.0 mph33.8 kmh 29.69 in1005.4 mb 0.18 in4.6 mm 0.00 in/hr0.0 mm/hr 0.24 in6.1 mm
09:45 PM 65.1°F18.4°C 61.2°F16.2°C 87% 13.0 mph SSE20.9 kmh SSE 21.0 mph33.8 kmh 29.69 in1005.4 mb 0.18 in4.6 mm 0.00 in/hr0.0 mm/hr 0.24 in6.1 mm
09:52 PM 64.9°F18.3°C 61.0°F16.1°C 87% 10.7 mph SSE17.2 kmh SSE 17.0 mph27.4 kmh 29.69 in1005.4 mb 0.18 in4.6 mm 0.00 in/hr0.0 mm/hr 0.24 in6.1 mm
09:56 PM 64.9°F18.3°C 61.0°F16.1°C 87% 4.5 mph SSE7.2 kmh SSE 16.8 mph27.0 kmh 29.68 in1005.1 mb 0.10 in2.5 mm 0.00 in/hr0.0 mm/hr 0.26 in6.6 mm
10:00 PM 64.9°F18.3°C 61.0°F16.1°C 87% 11.4 mph SSE18.3 kmh SSE 11.4 mph18.3 kmh 29.68 in1005.1 mb 0.10 in2.5 mm 0.00 in/hr0.0 mm/hr 0.26 in6.6 mm
10:07 PM 64.9°F18.3°C 61.0°F16.1°C 87% 12.8 mph SE20.6 kmh SE 12.8 mph20.6 kmh 29.68 in1005.1 mb 0.08 in2.0 mm 0.00 in/hr0.0 mm/hr 0.26 in6.6 mm
10:11 PM 65.1°F18.4°C 61.2°F16.2°C 87% 15.7 mph SSE25.3 kmh SSE 15.7 mph25.3 kmh 29.68 in1005.1 mb 0.06 in1.5 mm 0.00 in/hr0.0 mm/hr 0.26 in6.6 mm
10:15 PM 65.1°F18.4°C 61.2°F16.2°C 87% 13.6 mph SSE21.9 kmh SSE 16.3 mph26.2 kmh 29.67 in1004.7 mb 0.09 in2.3 mm 0.45 in/hr11.4 mm/hr 0.29 in7.4 mm
10:22 PM 64.9°F18.3°C 61.0°F16.1°C 87% 8.1 mph SSE13.0 kmh SSE 16.3 mph26.2 kmh 29.67 in1004.7 mb 0.05 in1.3 mm 0.00 in/hr0.0 mm/hr 0.29 in7.4 mm
10:26 PM 64.9°F18.3°C 61.0°F16.1°C 87% 11.0 mph SSE17.7 kmh SSE 11.0 mph17.7 kmh 29.66 in1004.4 mb 0.05 in1.3 mm 0.00 in/hr0.0 mm/hr 0.29 in7.4 mm
10:30 PM 64.8°F18.2°C 61.0°F16.1°C 87% 16.8 mph S27.0 kmh S 16.8 mph27.0 kmh 29.65 in1004.1 mb 0.05 in1.3 mm 0.00 in/hr0.0 mm/hr 0.29 in7.4 mm
10:37 PM 64.8°F18.2°C 60.8°F16.0°C 87% 3.4 mph SSE5.5 kmh SSE 16.8 mph27.0 kmh 29.65 in1004.1 mb 0.05 in1.3 mm 0.00 in/hr0.0 mm/hr 0.29 in7.4 mm
10:41 PM 64.6°F18.1°C 60.7°F15.9°C 87% Calm Calm 11.6 mph18.7 kmh 29.64 in1003.7 mb 0.07 in1.8 mm 0.30 in/hr7.6 mm/hr 0.31 in7.9 mm
10:47 PM 64.6°F18.1°C 60.7°F15.9°C 87% 4.0 mph SSE6.4 kmh SSE 4.0 mph6.4 kmh 29.64 in1003.7 mb 0.07 in1.8 mm 0.00 in/hr0.0 mm/hr 0.31 in7.9 mm
10:52 PM 64.6°F18.1°C 60.7°F15.9°C 87% 3.1 mph SSE5.0 kmh SSE 4.0 mph6.4 kmh 29.63 in1003.4 mb 0.07 in1.8 mm 0.00 in/hr0.0 mm/hr 0.33 in8.4 mm
10:56 PM 64.4°F18.0°C 60.2°F15.7°C 86% Calm Calm 5.1 mph8.2 kmh 29.63 in1003.4 mb 0.07 in1.8 mm 0.00 in/hr0.0 mm/hr 0.33 in8.4 mm
11:02 PM 64.2°F17.9°C 60.0°F15.6°C 86% Calm Calm 6.3 mph10.1 kmh 29.63 in1003.4 mb 0.09 in2.3 mm 0.02 in/hr0.5 mm/hr 0.31 in7.9 mm
11:07 PM 64.2°F17.9°C 60.3°F15.7°C 87% 7.6 mph SE12.2 kmh SE 7.6 mph12.2 kmh 29.63 in1003.4 mb 0.09 in2.3 mm 0.00 in/hr0.0 mm/hr 0.31 in7.9 mm
11:11 PM 64.2°F17.9°C 60.0°F15.6°C 86% Calm Calm 7.6 mph12.2 kmh 29.63 in1003.4 mb 0.06 in1.5 mm 0.00 in/hr0.0 mm/hr 0.31 in7.9 mm
11:18 PM 64.2°F17.9°C 60.0°F15.6°C 86% 5.8 mph S9.3 kmh S 5.8 mph9.3 kmh 29.64 in1003.7 mb 0.06 in1.5 mm 0.00 in/hr0.0 mm/hr 0.31 in7.9 mm
11:22 PM 64.2°F17.9°C 60.0°F15.6°C 86% Calm Calm 5.8 mph9.3 kmh 29.64 in1003.7 mb 0.06 in1.5 mm 0.00 in/hr0.0 mm/hr 0.31 in7.9 mm
11:26 PM 64.2°F17.9°C 60.0°F15.6°C 86% Calm Calm 5.8 mph9.3 kmh 29.64 in1003.7 mb 0.06 in1.5 mm 0.00 in/hr0.0 mm/hr 0.31 in7.9 mm
11:33 PM 64.4°F18.0°C 60.0°F15.6°C 86% 5.1 mph SSW8.2 kmh SSW 5.1 mph8.2 kmh 29.65 in1004.1 mb 0.08 in2.0 mm 0.17 in/hr4.3 mm/hr 0.02 in0.5 mm
11:37 PM 64.2°F17.9°C 60.2°F15.7°C 86% 5.1 mph SSW8.2 kmh SSW 5.1 mph8.2 kmh 29.67 in1004.7 mb 0.06 in1.5 mm 0.00 in/hr0.0 mm/hr 0.02 in0.5 mm
11:41 PM 64.2°F17.9°C 60.0°F15.6°C 86% 8.7 mph SW14.0 kmh SW 8.7 mph14.0 kmh 29.64 in1003.7 mb 0.10 in2.5 mm 0.60 in/hr15.2 mm/hr 0.06 in1.5 mm
11:48 PM 64.0°F17.8°C 60.0°F15.6°C 86% 10.5 mph SSE16.9 kmh SSE 10.5 mph16.9 kmh 29.64 in1003.7 mb 0.10 in2.5 mm 0.00 in/hr0.0 mm/hr 0.08 in2.0 mm
11:52 PM 64.0°F17.8°C 59.8°F15.4°C 86% 6.0 mph S9.7 kmh S 10.5 mph16.9 kmh 29.63 in1003.4 mb 0.12 in3.0 mm 0.30 in/hr7.6 mm/hr 0.10 in2.5 mm
11:56 PM 64.0°F17.8°C 59.8°F15.4°C 86% 7.3 mph SSE11.7 kmh SSE 10.5 mph16.9 kmh 29.62 in1003.0 mb 0.10 in2.5 mm 0.00 in/hr0.0 mm/hr 0.10 in2.5 mm